Time;durP1;ratioP1;P1;durP2;ratioP2;P2;SDS_P1;SDS_P2;PMS_P1;PMS_P2;Temp;Humidity;BMP_temperature;BMP_pressure;BME280_temperature;BME280_humidity;BME280_pressure;Samples;Min_cycle;Max_cycle;Signal;HPM_P1;HPM_P2
2021/04/13 00:01:14;;;;;;;9.10;7.00;;;;;;;;;;4949005;28;20371;-63
2021/04/13 00:03:52;;;;;;;8.90;7.33;;;;;;;;;;4955924;28;20282;-65
2021/04/13 00:06:25;;;;;;;8.90;8.00;;;;;;;;;;4958343;28;20253;-64
2021/04/13 00:08:54;;;;;;;8.27;7.47;;;;;;;;;;4956481;28;20218;-63
2021/04/13 00:11:20;;;;;;;9.33;8.40;;;;;;;;;;4950095;28;20195;-62
2021/04/13 00:13:46;;;;;;;8.93;8.03;;;;;;;;;;4953662;28;20194;-63
2021/04/13 00:16:15;;;;;;;8.63;7.87;;;;;;;;;;4958626;28;20201;-60
2021/04/13 00:18:42;;;;;;;9.77;8.73;;;;;;;;;;4956026;28;20219;-63
2021/04/13 00:21:08;;;;;;;8.80;7.90;;;;;;;;;;4949523;28;20197;-61
2021/04/13 00:23:34;;;;;;;8.80;8.00;;;;;;;;;;4955158;28;20185;-62
2021/04/13 00:26:05;;;;;;;8.87;7.97;;;;;;;;;;4963135;28;20305;-62
2021/04/13 00:28:34;;;;;;;8.53;7.73;;;;;;;;;;4956986;28;20301;-63
2021/04/13 00:31:04;;;;;;;9.13;8.00;;;;;;;;;;4949336;28;20196;-63
2021/04/13 00:33:35;;;;;;;9.23;7.43;;;;;;;;;;4945856;28;20765;-63
2021/04/13 00:36:12;;;;;;;10.27;8.93;;;;;;;;;;4954694;28;20191;-63
2021/04/13 00:38:38;;;;;;;8.47;7.63;;;;;;;;;;4952532;28;20694;-63
2021/04/13 00:41:16;;;;;;;8.93;7.87;;;;;;;;;;4950221;28;20222;-63
2021/04/13 00:43:44;;;;;;;8.40;7.60;;;;;;;;;;4950194;28;20195;-63
2021/04/13 00:46:11;;;;;;;8.67;7.83;;;;;;;;;;4954706;28;20593;-63
2021/04/13 00:48:39;;;;;;;10.63;7.87;;;;;;;;;;4956277;28;20562;-63
2021/04/13 00:51:28;;;;;;;8.63;7.70;;;;;;;;;;4951043;28;20195;-62
2021/04/13 00:54:05;;;;;;;8.47;7.67;;;;;;;;;;4949503;28;20209;-62
2021/04/13 00:56:32;;;;;;;8.70;7.83;;;;;;;;;;4950701;28;20198;-64
2021/04/13 00:59:01;;;;;;;8.87;7.47;;;;;;;;;;4957966;28;20214;-63
2021/04/13 01:01:31;;;;;;;8.97;7.83;;;;;;;;;;4948595;28;20221;-64
2021/04/13 01:04:02;;;;;;;9.10;8.30;;;;;;;;;;4950460;28;20261;-65
2021/04/13 01:06:29;;;;;;;8.80;7.90;;;;;;;;;;4956955;28;20721;-63
2021/04/13 01:09:10;;;;;;;8.63;7.80;;;;;;;;;;4954626;28;20198;-63
2021/04/13 01:11:44;;;;;;;8.87;7.97;;;;;;;;;;4952065;28;20590;-62
2021/04/13 01:14:10;;;;;;;9.37;8.37;;;;;;;;;;4951221;28;20199;-63
2021/04/13 01:16:57;;;;;;;9.10;8.20;;;;;;;;;;4959182;28;20204;-62
2021/04/13 01:19:23;;;;;;;8.53;7.73;;;;;;;;;;4954028;28;20250;-61
2021/04/13 01:22:00;;;;;;;9.60;8.60;;;;;;;;;;4949512;28;20198;-63
2021/04/13 01:24:30;;;;;;;9.10;8.20;;;;;;;;;;4953545;28;20194;-63
2021/04/13 01:26:57;;;;;;;8.57;7.80;;;;;;;;;;4953160;28;20189;-65
2021/04/13 01:29:27;;;;;;;9.53;8.60;;;;;;;;;;4953125;28;20608;-62
2021/04/13 01:31:55;;;;;;;11.57;8.50;;;;;;;;;;4951838;28;20198;-64
2021/04/13 01:34:31;;;;;;;8.33;7.50;;;;;;;;;;4952891;28;20370;-63
2021/04/13 01:37:19;;;;;;;9.90;7.63;;;;;;;;;;4953949;28;21111;-63
2021/04/13 01:40:17;;;;;;;8.57;7.77;;;;;;;;;;4954254;28;20197;-62
2021/04/13 01:42:32;;;;;;;8.43;7.70;;;;;;;;;;4947843;28;20289;-63
2021/04/13 01:45:04;;;;;;;8.33;7.53;;;;;;;;;;4949253;28;20238;-64
2021/04/13 01:47:30;;;;;;;7.97;7.17;;;;;;;;;;4952860;28;20194;-63
2021/04/13 01:49:58;;;;;;;8.33;7.50;;;;;;;;;;4962107;28;20189;-62
2021/04/13 01:52:30;;;;;;;7.90;7.20;;;;;;;;;;4951470;28;20297;-62
2021/04/13 01:54:57;;;;;;;8.37;7.47;;;;;;;;;;4948622;28;20613;-61
2021/04/13 01:57:42;;;;;;;8.83;8.03;;;;;;;;;;4951142;28;20718;-62
2021/04/13 02:00:11;;;;;;;7.80;7.10;;;;;;;;;;4961913;28;20241;-61
2021/04/13 02:02:43;;;;;;;8.67;7.77;;;;;;;;;;4948065;28;20546;-63
2021/04/13 02:05:11;;;;;;;8.60;7.67;;;;;;;;;;4953075;28;20210;-63
2021/04/13 02:08:05;;;;;;;10.13;7.83;;;;;;;;;;4956535;28;20213;-63
2021/04/13 02:10:37;;;;;;;9.40;7.63;;;;;;;;;;4958514;28;20604;-63
2021/04/13 02:13:13;;;;;;;9.03;7.20;;;;;;;;;;4954395;28;20230;-63
2021/04/13 02:15:42;;;;;;;8.97;8.07;;;;;;;;;;4954609;28;20186;-63
2021/04/13 02:18:19;;;;;;;8.03;7.23;;;;;;;;;;4950937;28;20301;-63
2021/04/13 02:20:47;;;;;;;9.00;8.20;;;;;;;;;;4953118;28;20200;-63
2021/04/13 02:23:13;;;;;;;8.53;7.30;;;;;;;;;;4950357;28;20189;-63
2021/04/13 02:25:40;;;;;;;8.37;7.57;;;;;;;;;;4952516;28;20261;-64
2021/04/13 02:28:07;;;;;;;10.23;9.13;;;;;;;;;;4950930;28;20299;-62
2021/04/13 02:30:37;;;;;;;11.50;9.67;;;;;;;;;;4953958;28;20187;-60
2021/04/13 02:33:07;;;;;;;12.50;10.43;;;;;;;;;;4954656;28;20241;-62
2021/04/13 02:35:36;;;;;;;10.33;9.33;;;;;;;;;;4950690;28;20229;-63
2021/04/13 02:38:04;;;;;;;10.13;9.13;;;;;;;;;;4953105;28;20222;-62
2021/04/13 02:40:39;;;;;;;11.17;9.27;;;;;;;;;;4952991;28;20206;-63
2021/04/13 02:43:15;;;;;;;10.60;9.37;;;;;;;;;;4949476;28;20409;-64
2021/04/13 02:45:51;;;;;;;11.13;9.20;;;;;;;;;;4953181;28;20281;-64
2021/04/13 02:48:23;;;;;;;10.40;9.07;;;;;;;;;;4947421;28;20209;-65
2021/04/13 02:50:50;;;;;;;8.97;8.17;;;;;;;;;;4947436;28;20560;-63
2021/04/13 02:53:19;;;;;;;8.93;8.00;;;;;;;;;;4947503;28;20611;-62
2021/04/13 02:55:51;;;;;;;9.57;8.60;;;;;;;;;;4951868;28;20203;-63
2021/04/13 02:58:18;;;;;;;9.37;8.50;;;;;;;;;;4950403;28;20288;-63
2021/04/13 03:00:45;;;;;;;10.43;9.33;;;;;;;;;;4953101;28;20222;-63
2021/04/13 03:03:13;;;;;;;10.27;9.30;;;;;;;;;;4948025;28;20303;-63
2021/04/13 03:05:40;;;;;;;10.90;8.70;;;;;;;;;;4949159;28;20325;-64
2021/04/13 03:08:07;;;;;;;9.60;8.60;;;;;;;;;;4957021;28;20223;-64
2021/04/13 03:10:36;;;;;;;9.70;8.47;;;;;;;;;;4949296;28;20596;-62
2021/04/13 03:13:07;;;;;;;10.17;8.87;;;;;;;;;;4943583;28;20188;-64
2021/04/13 03:15:34;;;;;;;14.40;9.37;;;;;;;;;;4945895;28;20277;-65
2021/04/13 03:18:02;;;;;;;17.43;9.97;;;;;;;;;;4953933;28;20248;-63
2021/04/13 03:20:30;;;;;;;12.50;10.13;;;;;;;;;;4952529;28;20663;-64
2021/04/13 03:22:58;;;;;;;14.93;10.77;;;;;;;;;;4949071;28;20199;-64
2021/04/13 03:25:27;;;;;;;18.43;11.63;;;;;;;;;;4950681;28;20224;-64
2021/04/13 03:27:54;;;;;;;15.17;10.50;;;;;;;;;;4957362;28;20205;-61
2021/04/13 03:30:27;;;;;;;12.93;10.07;;;;;;;;;;4954939;28;20276;-63
2021/04/13 03:32:59;;;;;;;10.30;9.27;;;;;;;;;;4948075;28;20197;-64
2021/04/13 03:35:27;;;;;;;11.00;9.87;;;;;;;;;;4951468;28;20201;-65
2021/04/13 03:37:54;;;;;;;10.10;9.10;;;;;;;;;;4955530;28;20262;-61
2021/04/13 03:40:23;;;;;;;11.40;9.63;;;;;;;;;;4954449;28;20198;-62
2021/04/13 03:42:53;;;;;;;12.27;9.17;;;;;;;;;;4953553;28;20199;-63
2021/04/13 03:45:20;;;;;;;11.77;9.33;;;;;;;;;;4953192;28;20282;-61
2021/04/13 03:47:46;;;;;;;9.77;8.87;;;;;;;;;;4956260;28;20241;-64
2021/04/13 03:50:17;;;;;;;10.17;8.83;;;;;;;;;;4953694;28;20193;-64
2021/04/13 03:52:43;;;;;;;9.43;8.63;;;;;;;;;;4952082;28;20184;-62
2021/04/13 03:55:20;;;;;;;8.87;8.00;;;;;;;;;;4953310;28;20326;-62
2021/04/13 03:57:47;;;;;;;10.20;9.20;;;;;;;;;;4955584;28;20281;-65
2021/04/13 04:00:16;;;;;;;10.13;9.07;;;;;;;;;;4956679;28;20636;-61
2021/04/13 04:02:42;;;;;;;10.03;8.87;;;;;;;;;;4946947;28;20282;-65
2021/04/13 04:05:15;;;;;;;12.00;9.93;;;;;;;;;;4959286;28;20221;-63
2021/04/13 04:10:35;;;;;;;10.07;8.97;;;;;;;;;;4954526;28;20199;-64
2021/04/13 04:13:09;;;;;;;10.97;9.87;;;;;;;;;;4956808;28;20195;-64
2021/04/13 04:15:39;;;;;;;11.53;9.77;;;;;;;;;;4960094;28;20323;-64
2021/04/13 04:18:11;;;;;;;11.53;9.20;;;;;;;;;;4955195;28;20226;-62
2021/04/13 04:20:37;;;;;;;11.53;10.00;;;;;;;;;;4949828;28;20197;-62
2021/04/13 04:23:04;;;;;;;13.03;9.80;;;;;;;;;;4947606;28;20224;-61
2021/04/13 04:25:30;;;;;;;11.20;9.43;;;;;;;;;;4954291;28;20293;-61
2021/04/13 04:27:56;;;;;;;12.63;10.50;;;;;;;;;;4954472;28;20206;-63
2021/04/13 04:30:22;;;;;;;12.97;11.20;;;;;;;;;;4947271;28;20196;-62
2021/04/13 04:32:49;;;;;;;12.57;10.70;;;;;;;;;;4947012;28;20199;-63
2021/04/13 04:35:30;;;;;;;13.33;11.07;;;;;;;;;;4953489;28;20190;-64
2021/04/13 04:38:08;;;;;;;11.70;10.50;;;;;;;;;;4949172;28;20208;-61
2021/04/13 04:40:38;;;;;;;13.07;11.13;;;;;;;;;;4951840;28;20208;-62
2021/04/13 04:43:06;;;;;;;12.97;10.60;;;;;;;;;;4955100;28;20194;-62
2021/04/13 04:45:45;;;;;;;11.00;9.87;;;;;;;;;;4955497;28;20213;-63
2021/04/13 04:48:23;;;;;;;13.73;11.70;;;;;;;;;;4953074;28;20600;-62
2021/04/13 04:50:50;;;;;;;12.80;10.87;;;;;;;;;;4949042;28;21607;-61
2021/04/13 04:53:17;;;;;;;13.17;11.60;;;;;;;;;;4959860;28;20198;-62
2021/04/13 04:55:43;;;;;;;16.27;11.80;;;;;;;;;;4959306;28;20203;-62
2021/04/13 04:58:09;;;;;;;16.57;11.90;;;;;;;;;;4953933;28;20301;-64
2021/04/13 05:00:35;;;;;;;16.53;12.87;;;;;;;;;;4949410;28;20204;-64
2021/04/13 05:03:01;;;;;;;14.70;11.90;;;;;;;;;;4956965;28;20198;-63
2021/04/13 05:05:27;;;;;;;14.73;11.30;;;;;;;;;;4951735;28;20266;-63
2021/04/13 05:07:53;;;;;;;12.37;10.50;;;;;;;;;;4950848;28;20697;-62
2021/04/13 05:10:19;;;;;;;11.93;10.73;;;;;;;;;;4948766;28;20198;-61
2021/04/13 05:12:45;;;;;;;12.17;10.87;;;;;;;;;;4949716;28;20625;-61
2021/04/13 05:15:12;;;;;;;12.27;10.63;;;;;;;;;;4948489;28;20281;-63
2021/04/13 05:17:38;;;;;;;14.07;10.67;;;;;;;;;;4946512;28;20247;-64
2021/04/13 05:20:04;;;;;;;12.13;10.90;;;;;;;;;;4950537;28;20675;-61
2021/04/13 05:22:30;;;;;;;10.53;9.20;;;;;;;;;;4950894;28;20296;-61
2021/04/13 05:24:56;;;;;;;11.57;9.53;;;;;;;;;;4953666;28;20218;-63
2021/04/13 05:27:22;;;;;;;12.83;10.50;;;;;;;;;;4954011;28;20189;-62
2021/04/13 05:29:48;;;;;;;12.07;9.80;;;;;;;;;;4955772;28;20195;-63
2021/04/13 05:32:14;;;;;;;12.73;10.10;;;;;;;;;;4951046;28;20593;-60
2021/04/13 05:34:40;;;;;;;13.27;10.77;;;;;;;;;;4952169;28;20202;-62
2021/04/13 05:37:06;;;;;;;10.70;9.60;;;;;;;;;;4954027;28;20296;-61
2021/04/13 05:39:32;;;;;;;14.57;9.93;;;;;;;;;;4947237;28;20212;-64
2021/04/13 05:42:00;;;;;;;13.03;10.80;;;;;;;;;;4951662;28;20190;-63
2021/04/13 05:44:26;;;;;;;15.80;12.60;;;;;;;;;;4950157;28;20190;-63
2021/04/13 05:46:52;;;;;;;16.60;12.93;;;;;;;;;;4953888;28;20370;-63
2021/04/13 05:49:19;;;;;;;20.10;13.83;;;;;;;;;;4951039;28;20600;-63
2021/04/13 05:51:45;;;;;;;17.27;13.13;;;;;;;;;;4949034;28;20260;-63
2021/04/13 05:54:11;;;;;;;19.77;13.10;;;;;;;;;;4949074;28;20281;-61
2021/04/13 05:56:39;;;;;;;19.00;13.63;;;;;;;;;;4951308;28;20571;-62
2021/04/13 05:59:06;;;;;;;21.57;13.43;;;;;;;;;;4950680;28;20760;-64
2021/04/13 06:01:32;;;;;;;15.07;11.00;;;;;;;;;;4945392;28;20195;-63
2021/04/13 06:03:58;;;;;;;13.47;10.87;;;;;;;;;;4949000;28;20200;-63
2021/04/13 06:06:24;;;;;;;11.97;9.63;;;;;;;;;;4949373;28;20220;-63
2021/04/13 06:08:50;;;;;;;12.80;9.83;;;;;;;;;;4956469;28;20205;-63
2021/04/13 06:11:23;;;;;;;9.80;8.80;;;;;;;;;;4949556;28;20191;-63
2021/04/13 06:13:49;;;;;;;12.40;8.83;;;;;;;;;;4945841;28;20254;-63
2021/04/13 06:16:18;;;;;;;13.70;8.87;;;;;;;;;;4949186;28;20196;-62
2021/04/13 06:18:44;;;;;;;12.30;8.63;;;;;;;;;;4955382;28;20218;-61
2021/04/13 06:21:10;;;;;;;8.47;7.63;;;;;;;;;;4946210;28;20246;-65
2021/04/13 06:23:36;;;;;;;8.73;7.83;;;;;;;;;;4951878;28;20597;-62
2021/04/13 06:26:02;;;;;;;12.83;7.83;;;;;;;;;;4954003;28;20230;-63
2021/04/13 06:28:28;;;;;;;8.93;8.03;;;;;;;;;;4947843;28;20207;-63
2021/04/13 06:30:55;;;;;;;9.10;7.67;;;;;;;;;;4947705;28;20205;-63
2021/04/13 06:33:21;;;;;;;8.20;7.37;;;;;;;;;;4955225;28;20208;-62
2021/04/13 06:35:48;;;;;;;13.63;7.90;;;;;;;;;;4957161;28;20245;-64
2021/04/13 06:38:15;;;;;;;9.80;7.93;;;;;;;;;;4951392;28;20422;-62
2021/04/13 06:40:56;;;;;;;10.03;8.00;;;;;;;;;;4956289;28;20701;-64
2021/04/13 06:43:41;;;;;;;9.07;8.17;;;;;;;;;;4951150;28;20209;-64
2021/04/13 06:46:07;;;;;;;9.17;8.27;;;;;;;;;;4944469;28;20214;-64
2021/04/13 06:48:40;;;;;;;9.27;8.10;;;;;;;;;;4943465;28;20210;-63
2021/04/13 06:51:06;;;;;;;10.63;8.23;;;;;;;;;;4946507;28;20263;-62
2021/04/13 06:53:32;;;;;;;9.50;8.00;;;;;;;;;;4948534;28;20198;-63
2021/04/13 06:56:13;;;;;;;8.37;7.67;;;;;;;;;;4953668;28;20199;-63
2021/04/13 06:58:57;;;;;;;8.90;8.00;;;;;;;;;;4950479;28;20268;-62
2021/04/13 07:01:33;;;;;;;8.47;7.43;;;;;;;;;;4948706;28;20195;-63
2021/04/13 07:04:03;;;;;;;8.17;7.37;;;;;;;;;;4948992;28;20675;-62
2021/04/13 07:06:32;;;;;;;8.70;7.90;;;;;;;;;;4956656;28;20210;-63
2021/04/13 07:09:16;;;;;;;8.60;7.90;;;;;;;;;;4948060;28;20262;-65
2021/04/13 07:11:57;;;;;;;8.80;8.00;;;;;;;;;;4947681;28;20246;-62
2021/04/13 07:14:26;;;;;;;8.93;7.60;;;;;;;;;;4947948;28;20191;-63
2021/04/13 07:17:05;;;;;;;9.00;8.10;;;;;;;;;;4949774;28;20201;-63
2021/04/13 07:19:43;;;;;;;8.90;8.10;;;;;;;;;;4950101;28;20249;-63
2021/04/13 07:22:18;;;;;;;10.97;8.57;;;;;;;;;;4947684;28;20210;-64
2021/04/13 07:24:54;;;;;;;9.40;8.07;;;;;;;;;;4951020;28;20201;-65
2021/04/13 07:27:33;;;;;;;8.47;7.73;;;;;;;;;;4943320;28;20281;-65
2021/04/13 07:30:19;;;;;;;9.47;8.17;;;;;;;;;;4953097;28;20257;-64
2021/04/13 07:32:46;;;;;;;8.87;8.00;;;;;;;;;;4951538;28;20191;-63
2021/04/13 07:35:15;;;;;;;8.40;7.70;;;;;;;;;;4946967;28;20225;-66
2021/04/13 07:37:43;;;;;;;9.02;8.23;;;;;;;;;;4948483;28;20210;-63
2021/04/13 07:40:36;;;;;;;11.43;8.10;;;;;;;;;;4954020;28;20186;-63
2021/04/13 07:43:19;;;;;;;12.02;9.05;;;;;;;;;;4950598;28;20213;-66
2021/04/13 07:46:04;;;;;;;9.65;8.23;;;;;;;;;;4951965;28;20245;-64
2021/04/13 07:48:36;;;;;;;8.98;8.18;;;;;;;;;;4944485;28;20233;-64
2021/04/13 07:51:08;;;;;;;9.73;8.73;;;;;;;;;;4953455;28;20194;-64
2021/04/13 07:53:47;;;;;;;9.73;8.38;;;;;;;;;;4954299;28;20265;-64
2021/04/13 07:56:32;;;;;;;10.75;8.25;;;;;;;;;;4959639;28;20200;-64
2021/04/13 07:59:19;;;;;;;8.63;7.78;;;;;;;;;;4950656;28;20289;-65
2021/04/13 08:01:48;;;;;;;9.57;8.57;;;;;;;;;;4948588;28;20198;-65
2021/04/13 08:04:19;;;;;;;9.55;8.75;;;;;;;;;;4954526;28;20647;-63
2021/04/13 08:06:52;;;;;;;10.10;8.82;;;;;;;;;;4946034;28;20230;-64
2021/04/13 08:09:21;;;;;;;9.30;8.23;;;;;;;;;;4949250;28;20214;-64
2021/04/13 08:12:08;;;;;;;8.38;7.57;;;;;;;;;;4951211;28;20191;-64
2021/04/13 08:14:35;;;;;;;7.65;6.93;;;;;;;;;;4954155;28;20187;-65
2021/04/13 08:17:06;;;;;;;8.98;8.10;;;;;;;;;;4947439;28;20194;-65
2021/04/13 08:19:33;;;;;;;8.48;7.60;;;;;;;;;;4940329;28;20732;-64
2021/04/13 08:22:22;;;;;;;9.18;8.48;;;;;;;;;;4948086;28;20195;-64
2021/04/13 08:24:52;;;;;;;9.32;7.45;;;;;;;;;;4947067;28;20199;-63
2021/04/13 08:27:27;;;;;;;6.57;6.07;;;;;;;;;;4957929;28;20183;-64
2021/04/13 08:29:59;;;;;;;7.55;6.95;;;;;;;;;;4953455;28;20186;-64
2021/04/13 08:32:57;;;;;;;7.80;7.10;;;;;;;;;;4951492;28;20198;-63
2021/04/13 08:35:25;;;;;;;8.23;7.43;;;;;;;;;;4950972;28;20187;-64
2021/04/13 08:38:10;;;;;;;8.35;7.60;;;;;;;;;;4955288;28;20206;-64
2021/04/13 08:40:44;;;;;;;9.60;8.73;;;;;;;;;;4953116;28;20270;-64
2021/04/13 08:43:31;;;;;;;10.50;9.60;;;;;;;;;;4955510;28;20187;-63
2021/04/13 08:46:10;;;;;;;11.33;10.10;;;;;;;;;;4954586;28;20606;-66
2021/04/13 08:48:36;;;;;;;11.77;10.53;;;;;;;;;;4951714;28;20216;-63
2021/04/13 08:51:13;;;;;;;11.37;10.40;;;;;;;;;;4949993;28;20242;-62
2021/04/13 08:53:44;;;;;;;12.23;11.13;;;;;;;;;;4953126;28;20288;-64
2021/04/13 08:56:12;;;;;;;14.13;12.73;;;;;;;;;;4950315;28;20238;-63
2021/04/13 08:58:46;;;;;;;13.77;12.43;;;;;;;;;;4942364;28;20222;-64
2021/04/13 09:01:23;;;;;;;12.93;11.67;;;;;;;;;;4953496;28;20191;-64
2021/04/13 09:03:49;;;;;;;14.23;12.87;;;;;;;;;;4955437;28;20547;-64
2021/04/13 09:06:23;;;;;;;14.63;13.27;;;;;;;;;;4951962;28;20313;-64
2021/04/13 09:08:55;;;;;;;14.47;13.17;;;;;;;;;;4949423;28;20222;-62
2021/04/13 09:11:21;;;;;;;14.57;13.23;;;;;;;;;;4952869;28;20222;-63
2021/04/13 09:14:00;;;;;;;13.83;12.53;;;;;;;;;;4952819;28;20277;-64
2021/04/13 09:16:26;;;;;;;13.20;12.00;;;;;;;;;;4949909;28;20202;-64
2021/04/13 09:18:56;;;;;;;10.90;10.00;;;;;;;;;;4949074;28;20971;-64
2021/04/13 09:21:26;;;;;;;10.43;9.50;;;;;;;;;;4957599;28;20257;-61
2021/04/13 09:23:57;;;;;;;9.07;8.27;;;;;;;;;;4951223;28;20278;-65
2021/04/13 09:26:32;;;;;;;10.17;9.27;;;;;;;;;;4949842;28;20214;-64
2021/04/13 09:28:59;;;;;;;9.30;8.50;;;;;;;;;;4954196;28;20261;-65
2021/04/13 09:31:35;;;;;;;8.93;8.23;;;;;;;;;;4959010;28;20198;-65
2021/04/13 09:34:12;;;;;;;9.40;8.43;;;;;;;;;;4952810;28;20688;-65
2021/04/13 09:37:08;;;;;;;11.13;8.77;;;;;;;;;;4951159;28;20194;-62
2021/04/13 09:39:54;;;;;;;9.80;9.00;;;;;;;;;;4948286;28;20646;-63
2021/04/13 09:42:39;;;;;;;10.10;9.20;;;;;;;;;;4954645;28;20221;-63
2021/04/13 09:45:05;;;;;;;9.95;9.15;;;;;;;;;;4954676;28;20595;-63
2021/04/13 09:47:31;;;;;;;9.48;8.68;;;;;;;;;;4949970;28;20205;-65
2021/04/13 09:50:02;;;;;;;8.82;7.93;;;;;;;;;;4952021;28;20218;-61
2021/04/13 09:52:47;;;;;;;9.30;8.55;;;;;;;;;;4948122;28;20586;-62
2021/04/13 09:55:28;;;;;;;8.10;7.50;;;;;;;;;;4951115;28;20277;-63
2021/04/13 09:58:13;;;;;;;7.65;6.95;;;;;;;;;;4956383;28;20203;-62
2021/04/13 10:00:45;;;;;;;9.18;7.90;;;;;;;;;;4946433;28;20194;-62
2021/04/13 10:03:25;;;;;;;9.88;9.07;;;;;;;;;;4945623;28;20725;-65
2021/04/13 10:05:52;;;;;;;8.35;7.53;;;;;;;;;;4946037;28;20234;-64
2021/04/13 10:08:23;;;;;;;8.52;7.78;;;;;;;;;;4947204;28;20214;-66
2021/04/13 10:10:57;;;;;;;11.23;9.23;;;;;;;;;;4950620;28;20179;-63
2021/04/13 10:13:42;;;;;;;9.02;8.07;;;;;;;;;;4944003;28;20650;-63
2021/04/13 10:16:27;;;;;;;6.40;5.60;;;;;;;;;;4950895;28;20560;-65
2021/04/13 10:19:11;;;;;;;5.93;5.40;;;;;;;;;;4947559;28;20688;-64
2021/04/13 10:21:43;;;;;;;5.97;5.43;;;;;;;;;;4956826;28;20280;-65
2021/04/13 10:24:09;;;;;;;6.20;5.70;;;;;;;;;;4951484;28;20190;-65
2021/04/13 10:26:35;;;;;;;6.63;6.03;;;;;;;;;;4950204;28;20217;-63
2021/04/13 10:29:20;;;;;;;6.57;6.07;;;;;;;;;;4951548;28;20290;-65
2021/04/13 10:32:04;;;;;;;8.43;6.25;;;;;;;;;;4960458;28;20186;-64
2021/04/13 10:34:50;;;;;;;6.05;5.57;;;;;;;;;;4954979;28;20189;-64
2021/04/13 10:37:35;;;;;;;6.13;5.53;;;;;;;;;;4949901;28;20186;-64
2021/04/13 10:40:07;;;;;;;5.97;5.47;;;;;;;;;;4949340;28;20190;-65
2021/04/13 10:42:39;;;;;;;6.03;5.53;;;;;;;;;;4957910;28;20188;-64
2021/04/13 10:45:11;;;;;;;6.47;5.82;;;;;;;;;;4949159;28;20213;-64
2021/04/13 10:47:57;;;;;;;9.63;6.65;;;;;;;;;;4946257;28;20194;-66
2021/04/13 10:50:29;;;;;;;5.63;4.00;;;;;;;;;;4948293;28;20193;-66
2021/04/13 10:53:16;;;;;;;4.75;4.28;;;;;;;;;;4957004;28;20206;-64
2021/04/13 10:55:48;;;;;;;5.38;4.85;;;;;;;;;;4953495;28;20210;-64
2021/04/13 10:58:27;;;;;;;5.90;5.38;;;;;;;;;;4947926;28;20245;-65
2021/04/13 11:00:56;;;;;;;5.80;5.32;;;;;;;;;;4947356;28;20566;-64
2021/04/13 11:03:40;;;;;;;4.80;4.38;;;;;;;;;;4947011;28;20217;-66
2021/04/13 11:06:19;;;;;;;4.85;4.45;;;;;;;;;;4940326;28;20218;-66
2021/04/13 11:09:04;;;;;;;6.65;5.80;;;;;;;;;;4946663;28;20206;-65
2021/04/13 11:11:46;;;;;;;4.70;4.40;;;;;;;;;;4947210;28;20278;-65
2021/04/13 11:14:11;;;;;;;5.22;4.80;;;;;;;;;;4948141;28;20197;-66
2021/04/13 11:16:56;;;;;;;5.03;4.63;;;;;;;;;;4946621;28;20191;-65
2021/04/13 11:19:25;;;;;;;4.15;3.85;;;;;;;;;;4950717;28;20258;-65
2021/04/13 11:22:03;;;;;;;4.30;4.00;;;;;;;;;;4948816;28;20214;-64
2021/04/13 11:24:39;;;;;;;4.63;4.25;;;;;;;;;;4946604;28;20217;-63
2021/04/13 11:27:20;;;;;;;5.25;4.75;;;;;;;;;;4947272;28;20203;-64
2021/04/13 11:30:01;;;;;;;4.55;4.15;;;;;;;;;;4949245;28;20223;-64
2021/04/13 11:32:30;;;;;;;4.47;4.18;;;;;;;;;;4948876;28;20183;-64
2021/04/13 11:34:59;;;;;;;4.45;4.05;;;;;;;;;;4948059;28;20187;-65
2021/04/13 11:37:25;;;;;;;5.28;4.72;;;;;;;;;;4950134;28;20221;-66
2021/04/13 11:40:15;;;;;;;4.50;4.18;;;;;;;;;;4948987;28;20620;-66
2021/04/13 11:42:42;;;;;;;3.22;2.92;;;;;;;;;;4948325;28;20544;-65
2021/04/13 11:45:22;;;;;;;2.63;2.42;;;;;;;;;;4950092;28;20221;-64
2021/04/13 11:48:07;;;;;;;3.30;3.03;;;;;;;;;;4947681;28;20215;-65
2021/04/13 11:50:37;;;;;;;4.53;3.97;;;;;;;;;;4943817;28;20338;-65
2021/04/13 11:53:05;;;;;;;4.70;4.30;;;;;;;;;;4952975;28;20269;-63
2021/04/13 11:55:32;;;;;;;5.28;4.22;;;;;;;;;;4954716;28;20229;-65
2021/04/13 11:58:10;;;;;;;4.07;3.67;;;;;;;;;;4953296;28;20195;-66
2021/04/13 12:00:36;;;;;;;4.15;3.80;;;;;;;;;;4956252;28;20474;-64
2021/04/13 12:03:04;;;;;;;4.00;3.60;;;;;;;;;;4953722;28;20527;-64
2021/04/13 12:05:33;;;;;;;3.90;3.60;;;;;;;;;;4952878;28;20203;-64
2021/04/13 12:08:01;;;;;;;4.35;3.70;;;;;;;;;;4948409;28;20793;-64
2021/04/13 12:10:27;;;;;;;5.53;4.05;;;;;;;;;;4949434;28;20287;-64
2021/04/13 12:12:53;;;;;;;4.00;3.70;;;;;;;;;;4957165;28;20179;-64
2021/04/13 12:15:19;;;;;;;4.50;3.90;;;;;;;;;;4950393;28;20205;-65
2021/04/13 12:17:52;;;;;;;4.50;3.45;;;;;;;;;;4957041;28;20710;-65
2021/04/13 12:20:20;;;;;;;4.53;3.10;;;;;;;;;;4950787;28;20565;-65
2021/04/13 12:22:46;;;;;;;3.88;3.20;;;;;;;;;;4953852;28;20190;-65
2021/04/13 12:25:31;;;;;;;2.95;2.60;;;;;;;;;;4952081;28;20728;-64
2021/04/13 12:28:01;;;;;;;4.03;3.72;;;;;;;;;;4949831;28;20206;-64
2021/04/13 12:30:32;;;;;;;3.72;3.40;;;;;;;;;;4953835;28;20198;-65
2021/04/13 12:32:58;;;;;;;3.60;3.30;;;;;;;;;;4955950;28;20882;-65
2021/04/13 12:35:42;;;;;;;8.18;4.45;;;;;;;;;;4954141;28;20582;-64
2021/04/13 12:38:27;;;;;;;4.40;4.00;;;;;;;;;;4948545;28;20266;-63
2021/04/13 12:41:11;;;;;;;3.85;3.65;;;;;;;;;;4948119;28;20196;-64
2021/04/13 12:43:44;;;;;;;6.55;4.03;;;;;;;;;;4956319;28;20269;-63
2021/04/13 12:46:19;;;;;;;4.88;3.92;;;;;;;;;;4956761;28;20202;-65
2021/04/13 12:48:47;;;;;;;4.47;4.05;;;;;;;;;;4948492;28;20207;-64
2021/04/13 12:51:24;;;;;;;4.30;4.00;;;;;;;;;;4951908;28;20556;-64
2021/04/13 12:54:09;;;;;;;4.72;4.10;;;;;;;;;;4947401;28;20226;-64
2021/04/13 12:56:35;;;;;;;4.30;4.00;;;;;;;;;;4949901;28;20273;-64
2021/04/13 12:59:10;;;;;;;8.20;6.13;;;;;;;;;;4940547;28;20215;-64
2021/04/13 13:01:43;;;;;;;5.28;4.50;;;;;;;;;;4948198;28;20194;-65
2021/04/13 13:04:13;;;;;;;8.68;6.78;;;;;;;;;;4951021;28;20294;-65
2021/04/13 13:06:41;;;;;;;13.40;9.45;;;;;;;;;;4951313;28;20218;-65
2021/04/13 13:09:16;;;;;;;7.68;6.05;;;;;;;;;;4952932;28;20279;-63
2021/04/13 13:11:42;;;;;;;5.78;4.55;;;;;;;;;;4952539;28;20179;-64
2021/04/13 13:14:13;;;;;;;10.50;8.35;;;;;;;;;;4950365;28;20221;-64
2021/04/13 13:16:39;;;;;;;7.22;5.70;;;;;;;;;;4953359;28;20403;-63
2021/04/13 13:19:05;;;;;;;14.35;8.95;;;;;;;;;;4951137;28;20218;-64
2021/04/13 13:21:52;;;;;;;7.60;5.85;;;;;;;;;;4950785;28;21123;-63
2021/04/13 13:24:19;;;;;;;3.67;3.38;;;;;;;;;;4951746;28;20201;-65
2021/04/13 13:26:45;;;;;;;7.10;5.50;;;;;;;;;;4953305;28;20215;-64
2021/04/13 13:29:11;;;;;;;2.92;2.60;;;;;;;;;;4949866;28;20697;-64
2021/04/13 13:31:37;;;;;;;2.75;2.55;;;;;;;;;;4948681;28;20273;-64
2021/04/13 13:34:05;;;;;;;3.17;2.45;;;;;;;;;;4949165;28;20191;-64
2021/04/13 13:36:36;;;;;;;2.33;2.13;;;;;;;;;;4950945;28;20193;-63
2021/04/13 13:39:06;;;;;;;3.05;2.55;;;;;;;;;;4951572;28;20211;-64
2021/04/13 13:41:32;;;;;;;3.00;2.40;;;;;;;;;;4950869;28;20183;-64
2021/04/13 13:43:58;;;;;;;3.20;2.90;;;;;;;;;;4964257;28;20183;-65
2021/04/13 13:46:32;;;;;;;3.05;2.65;;;;;;;;;;4953173;28;20211;-64
2021/04/13 13:49:15;;;;;;;2.17;2.00;;;;;;;;;;4946470;28;20202;-64
2021/04/13 13:51:41;;;;;;;3.83;2.53;;;;;;;;;;4951288;28;20187;-64
2021/04/13 13:54:12;;;;;;;2.65;2.45;;;;;;;;;;4963775;28;20272;-65
2021/04/13 13:56:38;;;;;;;3.35;3.05;;;;;;;;;;4954678;28;20319;-63
2021/04/13 13:59:24;;;;;;;4.40;3.03;;;;;;;;;;4950976;28;20203;-64
2021/04/13 14:02:01;;;;;;;5.10;4.00;;;;;;;;;;4952521;28;20254;-62
2021/04/13 14:04:29;;;;;;;4.43;4.03;;;;;;;;;;4954932;28;20191;-64
2021/04/13 14:06:55;;;;;;;4.70;4.15;;;;;;;;;;4950977;28;20781;-63
2021/04/13 14:09:21;;;;;;;4.15;3.75;;;;;;;;;;4956099;28;20210;-63
2021/04/13 14:11:47;;;;;;;6.38;3.97;;;;;;;;;;4955228;28;20210;-62
2021/04/13 14:14:28;;;;;;;4.53;3.72;;;;;;;;;;4953043;28;20214;-64
2021/04/13 14:16:56;;;;;;;4.22;3.67;;;;;;;;;;4953144;28;20187;-66
2021/04/13 14:19:25;;;;;;;5.22;4.00;;;;;;;;;;4946933;28;20690;-65
2021/04/13 14:21:51;;;;;;;4.05;3.42;;;;;;;;;;4951172;28;20191;-64
2021/04/13 14:24:17;;;;;;;4.95;3.92;;;;;;;;;;4953620;28;20383;-63
2021/04/13 14:26:46;;;;;;;3.38;3.08;;;;;;;;;;4954220;28;20233;-67
2021/04/13 14:29:23;;;;;;;3.90;3.60;;;;;;;;;;4950675;28;20203;-64
2021/04/13 14:31:53;;;;;;;5.03;3.42;;;;;;;;;;4949808;28;20219;-65
2021/04/13 14:34:19;;;;;;;3.22;3.00;;;;;;;;;;4950222;28;20207;-64
2021/04/13 14:36:46;;;;;;;3.92;3.63;;;;;;;;;;4953316;28;20202;-64
2021/04/13 14:39:18;;;;;;;3.40;3.10;;;;;;;;;;4952009;28;20203;-65
2021/04/13 14:41:45;;;;;;;3.75;3.33;;;;;;;;;;4955804;28;20259;-64
2021/04/13 14:44:12;;;;;;;3.28;2.97;;;;;;;;;;4956532;28;20193;-64
2021/04/13 14:46:39;;;;;;;3.30;3.00;;;;;;;;;;4955500;28;20736;-64
2021/04/13 14:49:05;;;;;;;4.05;2.83;;;;;;;;;;4958175;28;20234;-64
2021/04/13 14:51:32;;;;;;;2.83;2.63;;;;;;;;;;4953777;28;20237;-65
2021/04/13 14:53:59;;;;;;;6.25;3.97;;;;;;;;;;4954241;28;20187;-64
2021/04/13 14:56:25;;;;;;;4.28;3.58;;;;;;;;;;4950826;28;20191;-64
2021/04/13 14:58:51;;;;;;;3.83;3.28;;;;;;;;;;4956390;28;20217;-64
2021/04/13 15:01:17;;;;;;;4.80;3.10;;;;;;;;;;4954821;28;20182;-64
2021/04/13 15:03:43;;;;;;;3.90;3.60;;;;;;;;;;4952854;28;20201;-66
2021/04/13 15:06:10;;;;;;;4.40;3.42;;;;;;;;;;4955479;28;20215;-64